createdAt,value
2022-11-09T00:04:46.703Z,13.28
2022-11-09T00:09:50.597Z,13.30
2022-11-09T00:14:53.451Z,13.29
2022-11-09T00:20:04.390Z,13.29
2022-11-09T00:30:31.746Z,13.39
2022-11-09T00:35:35.701Z,13.33
2022-11-09T00:40:39.390Z,13.33
2022-11-09T00:45:48.288Z,13.34
2022-11-09T00:50:53.571Z,13.34
2022-11-09T01:01:19.983Z,13.40
2022-11-09T01:06:25.804Z,13.32
2022-11-09T01:11:28.611Z,13.31
2022-11-09T01:16:37.091Z,13.30
2022-11-09T01:27:05.285Z,13.34
2022-11-09T01:32:09.974Z,13.24
2022-11-09T01:37:14.589Z,13.21
2022-11-09T01:42:25.189Z,13.18
2022-11-09T01:47:28.007Z,13.14
2022-11-09T01:52:35.222Z,13.09
2022-11-09T02:03:18.104Z,13.08
2022-11-09T02:08:24.956Z,12.97
2022-11-09T02:13:30.420Z,12.90
2022-11-09T02:24:02.403Z,12.88
2022-11-09T02:40:09.554Z,12.63
2022-11-09T02:45:12.394Z,12.60
2022-11-09T02:50:16.120Z,12.54
2022-11-09T02:55:24.476Z,12.50
2022-11-09T03:00:27.379Z,12.47
2022-11-09T03:05:30.157Z,12.44
2022-11-09T03:10:38.256Z,12.40
2022-11-09T03:15:41.056Z,12.38
2022-11-09T03:20:46.071Z,12.33
2022-11-09T03:31:27.511Z,12.34
2022-11-09T03:36:31.083Z,12.26
2022-11-09T03:41:33.906Z,12.21
2022-11-09T03:46:43.189Z,12.18
2022-11-09T03:51:46.000Z,12.19
2022-11-09T03:56:48.804Z,12.17
2022-11-09T04:01:59.749Z,12.15
2022-11-09T04:07:02.585Z,12.16
2022-11-09T04:12:06.950Z,12.14
2022-11-09T04:17:16.307Z,12.15
2022-11-09T04:22:19.096Z,12.18
2022-11-09T04:32:45.607Z,12.27
2022-11-09T04:37:54.586Z,12.23
2022-11-09T04:42:57.385Z,12.24
2022-11-09T04:48:07.777Z,12.24
2022-11-09T04:53:13.176Z,12.26
2022-11-09T05:03:37.795Z,12.37
2022-11-09T05:14:02.151Z,12.41
2022-11-09T05:19:05.522Z,12.36
2022-11-09T05:24:09.993Z,12.38
2022-11-09T05:29:25.660Z,12.41
2022-11-09T05:34:28.981Z,12.44
2022-11-09T05:39:31.767Z,12.47
2022-11-09T05:45:04.073Z,12.57
2022-11-09T05:50:20.554Z,12.53
2022-11-09T05:55:23.349Z,12.54
2022-11-09T06:00:32.082Z,12.57
2022-11-09T06:05:35.541Z,12.60
2022-11-09T06:10:38.393Z,12.62
2022-11-09T06:15:55.065Z,12.64
2022-11-09T06:21:03.122Z,12.69
2022-11-09T06:31:34.215Z,12.80
2022-11-09T06:36:37.236Z,12.76
2022-11-09T06:41:43.357Z,12.77
2022-11-09T06:46:55.446Z,12.78
2022-11-09T06:51:58.439Z,12.80
2022-11-09T07:02:24.845Z,12.90
2022-11-09T07:12:48.833Z,12.94
2022-11-09T07:17:52.565Z,12.90
2022-11-09T07:44:03.187Z,12.88
2022-11-09T07:49:06.950Z,12.87
2022-11-09T07:54:10.623Z,12.87
2022-11-09T07:59:20.163Z,12.87
2022-11-09T08:26:05.151Z,13.01
2022-11-09T08:31:09.386Z,12.94
2022-11-09T08:36:13.642Z,12.94
2022-11-09T08:41:23.924Z,12.96
2022-11-09T09:02:42.090Z,13.18
2022-11-09T09:07:44.918Z,13.24
2022-11-09T09:12:48.818Z,13.27
2022-11-09T09:17:53.738Z,13.39
2022-11-09T09:23:04.756Z,13.78
2022-11-09T09:28:07.547Z,14.12
2022-11-09T09:45:27.293Z,15.37
2022-11-09T09:50:34.405Z,15.26
2022-11-09T09:55:38.719Z,15.45
2022-11-09T10:00:49.762Z,15.75
2022-11-09T10:06:00.944Z,15.99
2022-11-09T10:16:46.121Z,16.74
2022-11-09T10:21:54.935Z,16.90
2022-11-09T10:26:59.739Z,17.09
2022-11-09T10:32:21.530Z,17.37
2022-11-09T10:37:28.754Z,17.67
2022-11-09T10:53:22.223Z,18.44
2022-11-09T10:58:35.597Z,18.65
2022-11-09T11:03:39.059Z,18.64
2022-11-09T11:08:49.546Z,18.63
2022-11-09T11:14:12.122Z,18.65
2022-11-09T11:24:57.156Z,18.79
2022-11-09T11:30:11.430Z,18.78
2022-11-09T11:35:16.046Z,18.78
2022-11-09T11:45:59.347Z,18.76
2022-11-09T11:51:10.315Z,18.60
2022-11-09T11:56:23.955Z,18.48
2022-11-09T12:01:47.782Z,18.43
2022-11-09T12:07:12.853Z,18.36
2022-11-09T12:12:29.991Z,18.27
2022-11-09T12:17:47.722Z,18.19
2022-11-09T12:23:05.437Z,18.13
2022-11-09T12:28:24.560Z,18.08
2022-11-09T12:39:08.268Z,18.00
2022-11-09T12:44:17.585Z,17.85
2022-11-09T13:11:10.353Z,17.60
2022-11-09T13:16:34.212Z,17.58
2022-11-09T13:21:39.530Z,17.51
2022-11-09T13:27:30.706Z,17.46
2022-11-09T13:32:34.220Z,17.45
2022-11-09T13:37:48.958Z,17.38
2022-11-09T13:43:03.958Z,17.35
2022-11-09T13:48:08.093Z,17.32
2022-11-09T13:53:30.727Z,17.28
2022-11-09T13:58:42.589Z,17.28
2022-11-09T14:03:53.073Z,17.24
2022-11-09T14:08:57.415Z,17.21
2022-11-09T14:19:49.946Z,17.21
2022-11-09T14:32:36.092Z,17.09
2022-11-09T14:37:51.363Z,16.91
2022-11-09T14:59:17.284Z,16.64
2022-11-09T15:04:23.205Z,16.54
2022-11-09T15:20:33.093Z,16.40
2022-11-09T15:31:12.713Z,16.25
2022-11-09T15:36:30.354Z,16.13
2022-11-09T15:41:34.256Z,16.06
2022-11-09T15:46:46.917Z,16.00
2022-11-09T15:51:50.135Z,15.97
2022-11-09T15:56:54.274Z,15.90
2022-11-09T16:02:02.432Z,15.83
2022-11-09T16:07:05.411Z,15.76
2022-11-09T16:12:08.756Z,15.68
2022-11-09T16:17:16.872Z,15.58
2022-11-09T16:22:19.894Z,15.48
2022-11-09T16:27:48.551Z,15.39
2022-11-09T16:32:51.495Z,15.30
2022-11-09T16:59:31.627Z,14.90
2022-11-09T17:04:34.749Z,14.78
2022-11-09T17:09:38.811Z,14.71
2022-11-09T17:42:02.879Z,14.37
2022-11-09T17:47:07.344Z,14.29
2022-11-09T17:57:24.554Z,14.14
2022-11-09T18:02:27.624Z,14.08
2022-11-09T18:07:30.419Z,13.99
2022-11-09T18:12:38.542Z,13.91
2022-11-09T18:17:42.322Z,13.85
2022-11-09T18:22:45.771Z,13.78
2022-11-09T18:27:54.721Z,13.70
2022-11-09T18:38:19.986Z,13.58
2022-11-09T18:43:23.079Z,13.45
2022-11-09T18:48:26.824Z,13.35
2022-11-09T18:53:40.750Z,13.28
2022-11-09T19:10:50.320Z,13.14
2022-11-09T19:15:55.660Z,12.95
2022-11-09T19:21:01.049Z,12.88
2022-11-09T19:36:51.955Z,12.71
2022-11-09T19:41:54.720Z,12.65
2022-11-09T19:46:57.798Z,12.60
2022-11-09T20:02:51.800Z,12.50
2022-11-09T20:07:54.765Z,12.36
2022-11-09T20:46:17.727Z,11.99
2022-11-09T20:51:28.268Z,11.96
2022-11-09T20:56:31.043Z,11.94
2022-11-09T21:12:02.739Z,11.87
2022-11-09T21:17:05.646Z,11.86
2022-11-09T21:22:08.572Z,11.81
2022-11-09T21:27:17.995Z,11.79
2022-11-09T21:32:21.942Z,11.78
2022-11-09T21:48:23.744Z,11.71
2022-11-09T21:53:26.590Z,11.69
2022-11-09T21:58:30.524Z,11.65
2022-11-09T22:03:39.457Z,11.63
2022-11-09T22:08:42.786Z,11.63
2022-11-09T22:13:45.586Z,11.62
2022-11-09T22:29:41.773Z,11.71
2022-11-09T22:56:29.368Z,11.63
2022-11-09T23:01:32.230Z,11.64
2022-11-09T23:06:38.931Z,11.64
2022-11-09T23:22:31.419Z,11.63
2022-11-09T23:27:34.554Z,11.62
2022-11-09T23:32:37.421Z,11.62
2022-11-09T23:59:23.198Z,11.70
